Time;durP1;ratioP1;P1;durP2;ratioP2;P2;SDS_P1;SDS_P2;PMS_P1;PMS_P2;Temp;Humidity;BMP_temperature;BMP_pressure;BME280_temperature;BME280_humidity;BME280_pressure;Samples;Min_cycle;Max_cycle;Signal;HPM_P1;HPM_P2
2021/03/09 00:01:55;;;;;;;36.73;17.47;;;4.60;99.90;;;;;;5011430;28;20224;-65
2021/03/09 00:04:22;;;;;;;39.73;18.10;;;4.60;99.90;;;;;;5009386;28;20212;-63
2021/03/09 00:06:49;;;;;;;35.47;18.30;;;4.60;99.90;;;;;;5011574;28;20209;-63
2021/03/09 00:09:15;;;;;;;32.13;16.97;;;4.60;99.90;;;;;;5011139;28;20228;-64
2021/03/09 00:11:41;;;;;;;35.47;18.03;;;4.60;99.90;;;;;;5007923;28;20720;-69
2021/03/09 00:14:08;;;;;;;36.30;18.67;;;4.60;99.90;;;;;;5012385;28;20694;-64
2021/03/09 00:16:34;;;;;;;38.50;19.70;;;4.60;99.90;;;;;;5011444;28;20204;-63
2021/03/09 00:19:01;;;;;;;37.87;19.67;;;4.60;99.90;;;;;;5010620;28;20620;-64
2021/03/09 00:21:28;;;;;;;37.50;19.77;;;4.60;99.90;;;;;;5010628;28;20248;-68
2021/03/09 00:23:55;;;;;;;39.27;20.17;;;4.60;99.90;;;;;;5011918;28;20205;-67
2021/03/09 00:26:21;;;;;;;42.40;21.33;;;4.60;99.90;;;;;;5011533;28;20208;-64
2021/03/09 00:28:48;;;;;;;41.80;20.33;;;4.60;99.90;;;;;;5010453;28;20232;-67
2021/03/09 00:31:14;;;;;;;39.97;21.10;;;4.60;99.90;;;;;;5011804;28;20607;-64
2021/03/09 00:33:41;;;;;;;38.27;21.03;;;4.60;99.90;;;;;;5012319;28;20251;-67
2021/03/09 00:36:07;;;;;;;43.90;21.97;;;4.60;99.90;;;;;;5011525;28;20250;-64
2021/03/09 00:38:35;;;;;;;44.77;22.37;;;4.60;99.90;;;;;;5010469;28;20542;-68
2021/03/09 00:41:01;;;;;;;44.20;22.37;;;4.60;99.90;;;;;;5010462;28;20251;-63
2021/03/09 00:43:28;;;;;;;46.70;21.23;;;4.60;99.90;;;;;;5012451;28;20193;-63
2021/03/09 00:45:54;;;;;;;47.07;23.50;;;4.60;99.90;;;;;;5011351;28;20225;-64
2021/03/09 00:48:21;;;;;;;46.83;24.07;;;4.60;99.90;;;;;;5009881;28;20689;-65
2021/03/09 00:50:47;;;;;;;44.07;23.37;;;4.60;99.90;;;;;;5011288;28;20197;-67
2021/03/09 00:53:13;;;;;;;47.23;26.07;;;4.60;99.90;;;;;;5016448;28;20197;-60
2021/03/09 00:55:41;;;;;;;47.20;25.37;;;4.60;99.90;;;;;;5014425;28;20204;-62
2021/03/09 00:58:07;;;;;;;50.60;25.73;;;4.60;99.90;;;;;;5012754;28;20205;-60
2021/03/09 01:00:34;;;;;;;51.70;24.90;;;4.60;99.90;;;;;;5015198;28;20704;-64
2021/03/09 01:03:00;;;;;;;52.50;26.10;;;4.60;99.90;;;;;;5015268;28;20204;-66
2021/03/09 01:05:27;;;;;;;48.67;26.17;;;4.60;99.90;;;;;;5015180;28;20201;-66
2021/03/09 01:07:53;;;;;;;48.20;24.73;;;4.60;99.90;;;;;;5013148;28;20555;-67
2021/03/09 01:10:22;;;;;;;55.90;28.43;;;4.60;99.90;;;;;;5015173;28;20201;-67
2021/03/09 01:12:49;;;;;;;56.07;29.57;;;4.60;99.90;;;;;;5015040;28;20193;-62
2021/03/09 01:15:16;;;;;;;52.20;28.07;;;4.60;99.90;;;;;;5015858;28;20247;-64
2021/03/09 01:17:42;;;;;;;54.67;29.27;;;4.60;99.90;;;;;;5013922;28;20201;-65
2021/03/09 01:20:10;;;;;;;55.33;29.13;;;4.60;99.90;;;;;;5014485;28;20201;-63
2021/03/09 01:22:37;;;;;;;51.73;28.27;;;4.60;99.90;;;;;;5014951;28;20205;-62
2021/03/09 01:25:05;;;;;;;58.60;30.17;;;4.60;99.90;;;;;;5014079;28;20193;-61
2021/03/09 01:27:31;;;;;;;52.93;28.90;;;4.60;99.90;;;;;;5014816;28;20216;-64
2021/03/09 01:29:58;;;;;;;55.63;29.53;;;4.60;99.90;;;;;;5013797;28;20229;-66
2021/03/09 01:32:25;;;;;;;57.00;30.43;;;4.70;99.90;;;;;;5013876;28;20205;-67
2021/03/09 01:34:52;;;;;;;56.80;30.77;;;4.60;99.90;;;;;;5014791;28;20201;-66
2021/03/09 01:37:18;;;;;;;63.60;32.47;;;4.70;99.90;;;;;;5013357;28;20247;-62
2021/03/09 01:39:45;;;;;;;57.60;30.17;;;4.70;99.90;;;;;;5013974;28;20205;-69
2021/03/09 01:42:11;;;;;;;55.77;30.47;;;4.70;99.90;;;;;;5013668;28;20197;-61
2021/03/09 01:44:38;;;;;;;63.77;31.17;;;4.70;99.90;;;;;;5015126;28;20283;-65
2021/03/09 01:47:06;;;;;;;62.83;31.00;;;4.70;99.90;;;;;;5014433;28;20201;-66
2021/03/09 01:49:35;;;;;;;62.70;32.20;;;4.70;99.90;;;;;;5013060;28;20228;-69
2021/03/09 01:52:04;;;;;;;59.93;31.93;;;4.70;99.90;;;;;;5014314;28;20197;-67
2021/03/09 01:54:32;;;;;;;68.20;34.53;;;4.70;99.90;;;;;;5015407;28;20208;-67
2021/03/09 01:56:58;;;;;;;68.50;33.77;;;4.70;99.90;;;;;;5013835;28;20618;-65
2021/03/09 01:59:26;;;;;;;64.67;31.97;;;4.80;99.90;;;;;;5012206;28;20205;-65
2021/03/09 02:01:53;;;;;;;69.77;32.77;;;4.70;99.90;;;;;;5002250;28;20570;-66
2021/03/09 02:04:20;;;;;;;66.93;33.97;;;4.70;99.90;;;;;;5011161;28;20200;-69
2021/03/09 02:06:47;;;;;;;70.13;35.47;;;4.80;99.90;;;;;;5014050;28;20201;-68
2021/03/09 02:09:14;;;;;;;68.83;33.50;;;4.80;99.90;;;;;;5001941;28;20232;-67
2021/03/09 02:11:51;;;;;;;74.03;34.87;;;4.80;99.90;;;;;;5006684;28;20200;-63
2021/03/09 02:14:27;;;;;;;70.27;35.13;;;4.80;99.90;;;;;;5014016;28;20292;-67
2021/03/09 02:16:59;;;;;;;70.57;33.40;;;4.80;99.90;;;;;;5012909;28;20193;-68
2021/03/09 02:19:57;;;;;;;74.37;35.27;;;4.80;99.90;;;;;;5009851;28;20737;-66
2021/03/09 02:22:57;;;;;;;71.13;36.00;;;4.80;99.90;;;;;;5011164;28;20574;-68
2021/03/09 02:25:51;;;;;;;74.03;35.93;;;4.80;99.90;;;;;;5012651;28;20279;-62
2021/03/09 02:28:27;;;;;;;74.67;35.67;;;4.80;99.90;;;;;;5012303;28;20279;-64
2021/03/09 02:30:56;;;;;;;75.37;38.47;;;4.80;99.90;;;;;;5012585;28;20196;-67
2021/03/09 02:33:29;;;;;;;73.70;35.07;;;4.80;99.90;;;;;;5013538;28;20658;-66
2021/03/09 02:36:01;;;;;;;74.70;36.00;;;4.80;99.90;;;;;;5012918;28;20609;-68
2021/03/09 02:38:32;;;;;;;78.57;36.93;;;4.80;99.90;;;;;;5012695;28;20650;-65
2021/03/09 02:41:01;;;;;;;76.83;36.60;;;4.80;99.90;;;;;;5013847;28;20190;-66
2021/03/09 02:43:29;;;;;;;87.93;38.40;;;4.80;99.90;;;;;;5014521;28;20717;-62
2021/03/09 02:45:59;;;;;;;81.37;39.33;;;4.80;99.90;;;;;;5014042;28;20248;-67
2021/03/09 02:48:27;;;;;;;85.77;39.07;;;4.80;99.90;;;;;;5012342;28;20243;-65
2021/03/09 02:50:55;;;;;;;86.40;39.37;;;4.80;99.90;;;;;;5013200;28;20292;-61
2021/03/09 02:53:26;;;;;;;84.97;39.97;;;4.80;99.90;;;;;;5013232;28;20390;-64
2021/03/09 02:55:53;;;;;;;100.43;43.20;;;4.80;99.90;;;;;;5014081;28;20197;-66
2021/03/09 02:58:21;;;;;;;82.60;39.60;;;4.80;99.90;;;;;;5010918;28;20201;-64
2021/03/09 03:00:52;;;;;;;83.33;39.23;;;4.80;99.90;;;;;;5010802;28;20544;-63
2021/03/09 03:03:20;;;;;;;87.00;40.37;;;4.80;99.90;;;;;;5011734;28;20197;-67
2021/03/09 03:05:48;;;;;;;93.80;43.97;;;4.90;99.90;;;;;;5013671;28;20565;-65
2021/03/09 03:08:15;;;;;;;94.40;41.87;;;4.90;99.90;;;;;;5012142;28;20201;-65
2021/03/09 03:10:43;;;;;;;92.00;41.80;;;4.90;99.90;;;;;;5012647;28;20197;-70
2021/03/09 03:13:11;;;;;;;95.80;42.90;;;4.90;99.90;;;;;;5033322;28;20649;-69
2021/03/09 03:15:40;;;;;;;90.57;40.43;;;5.00;99.90;;;;;;5024737;28;20197;-66
2021/03/09 03:18:09;;;;;;;99.83;42.17;;;5.00;99.90;;;;;;5011607;28;20713;-64
2021/03/09 03:20:37;;;;;;;93.13;43.20;;;5.00;99.90;;;;;;5011305;28;20604;-64
2021/03/09 03:23:04;;;;;;;94.63;41.63;;;5.00;99.90;;;;;;5013302;28;20201;-63
2021/03/09 03:25:32;;;;;;;100.17;43.53;;;5.00;99.90;;;;;;5011929;28;20201;-68
2021/03/09 03:27:59;;;;;;;100.53;43.77;;;5.10;99.90;;;;;;5010728;28;20201;-67
2021/03/09 03:30:26;;;;;;;105.30;44.40;;;5.10;99.90;;;;;;5012427;28;20237;-65
2021/03/09 03:32:53;;;;;;;106.60;46.23;;;5.10;99.90;;;;;;5012563;28;20201;-66
2021/03/09 03:35:20;;;;;;;107.40;45.53;;;5.10;99.90;;;;;;5012370;28;20255;-69
2021/03/09 03:37:47;;;;;;;99.93;43.40;;;5.10;99.90;;;;;;5012043;28;20558;-67
2021/03/09 03:40:15;;;;;;;97.33;43.90;;;5.10;99.90;;;;;;5011283;28;20565;-67
2021/03/09 03:42:42;;;;;;;104.07;45.57;;;5.10;99.90;;;;;;5011147;28;20209;-67
2021/03/09 03:45:11;;;;;;;101.73;44.77;;;5.10;99.90;;;;;;5011650;28;20233;-69
2021/03/09 03:47:38;;;;;;;104.77;46.80;;;5.20;99.90;;;;;;5009880;28;20197;-69
2021/03/09 03:50:07;;;;;;;111.93;47.47;;;5.20;99.90;;;;;;5021296;28;20228;-70
2021/03/09 03:52:40;;;;;;;105.10;47.93;;;5.20;99.90;;;;;;5000898;28;20658;-66
2021/03/09 03:55:18;;;;;;;116.07;47.20;;;5.20;99.90;;;;;;4989935;28;20564;-68
2021/03/09 03:57:48;;;;;;;109.23;47.00;;;5.20;99.90;;;;;;4997925;28;20267;-68
2021/03/09 04:00:17;;;;;;;111.80;48.23;;;5.20;99.90;;;;;;4990636;28;20251;-69
2021/03/09 04:02:45;;;;;;;108.33;47.90;;;5.20;99.90;;;;;;4991196;28;20193;-67
2021/03/09 04:05:14;;;;;;;108.80;48.13;;;5.20;99.90;;;;;;4992546;28;20204;-67
2021/03/09 04:07:41;;;;;;;111.97;48.47;;;5.20;99.90;;;;;;4990236;28;20236;-67
2021/03/09 04:10:08;;;;;;;114.03;48.23;;;5.20;99.90;;;;;;4993465;28;20263;-68
2021/03/09 04:12:36;;;;;;;113.50;48.27;;;5.20;99.90;;;;;;4989660;28;20200;-63
2021/03/09 04:15:05;;;;;;;106.90;47.73;;;5.20;99.90;;;;;;4989742;28;20298;-65
2021/03/09 04:17:33;;;;;;;107.57;46.97;;;5.20;99.90;;;;;;4993803;28;20251;-69
2021/03/09 04:20:01;;;;;;;113.00;47.67;;;5.20;99.90;;;;;;4989822;28;20738;-67
2021/03/09 04:22:29;;;;;;;112.97;50.13;;;5.20;99.90;;;;;;4989031;28;20209;-67
2021/03/09 04:24:57;;;;;;;110.63;48.37;;;5.20;99.90;;;;;;4991462;28;20235;-64
2021/03/09 04:27:23;;;;;;;108.43;48.37;;;5.20;99.90;;;;;;4989333;28;20260;-70
2021/03/09 04:29:55;;;;;;;112.13;49.60;;;5.30;99.90;;;;;;4991301;28;20267;-70
2021/03/09 04:32:22;;;;;;;103.53;48.27;;;5.20;99.90;;;;;;4988158;28;20228;-70
2021/03/09 04:34:50;;;;;;;110.93;46.30;;;5.20;99.90;;;;;;4990033;28;20216;-68
2021/03/09 04:37:18;;;;;;;99.00;47.53;;;5.20;99.90;;;;;;4992362;28;20233;-69
2021/03/09 04:39:45;;;;;;;113.23;48.70;;;5.20;99.90;;;;;;4991176;28;20201;-70
2021/03/09 04:42:12;;;;;;;109.03;47.53;;;5.30;99.90;;;;;;4988834;28;20205;-69
2021/03/09 04:44:40;;;;;;;103.47;48.37;;;5.30;99.90;;;;;;4990793;28;20248;-70
2021/03/09 04:47:08;;;;;;;104.47;46.77;;;5.30;99.90;;;;;;4990811;28;20208;-70
2021/03/09 04:49:36;;;;;;;111.07;47.77;;;5.30;99.90;;;;;;4992560;28;20255;-69
2021/03/09 04:52:03;;;;;;;121.40;49.43;;;5.30;99.90;;;;;;4987137;28;20217;-68
2021/03/09 04:54:33;;;;;;;113.87;48.77;;;5.30;99.90;;;;;;4992927;28;20654;-69
2021/03/09 04:56:59;;;;;;;129.93;51.10;;;5.40;99.90;;;;;;4992617;28;20256;-66
2021/03/09 04:59:26;;;;;;;114.37;49.60;;;5.40;99.90;;;;;;4989814;28;20210;-65
2021/03/09 05:01:52;;;;;;;113.73;48.80;;;5.40;99.90;;;;;;4982054;28;20629;-71
2021/03/09 05:04:20;;;;;;;119.57;50.33;;;5.40;99.90;;;;;;4979980;28;20266;-69
2021/03/09 05:06:46;;;;;;;110.23;49.70;;;5.40;99.90;;;;;;4984300;28;20575;-69
2021/03/09 05:09:13;;;;;;;115.37;49.63;;;5.40;99.90;;;;;;4980083;28;20261;-69
2021/03/09 05:11:39;;;;;;;116.90;50.37;;;5.50;99.90;;;;;;4980610;28;20989;-68
2021/03/09 05:14:06;;;;;;;118.40;51.10;;;5.50;99.90;;;;;;4980505;28;20690;-69
2021/03/09 05:16:33;;;;;;;124.60;51.47;;;5.50;99.90;;;;;;5002316;28;20198;-68
2021/03/09 05:18:59;;;;;;;132.30;52.47;;;5.50;99.90;;;;;;5011268;28;20212;-71
2021/03/09 05:21:26;;;;;;;119.37;52.63;;;5.50;99.90;;;;;;5008906;28;20260;-66
2021/03/09 05:23:53;;;;;;;123.93;51.80;;;5.60;99.90;;;;;;5008415;28;20212;-69
2021/03/09 05:26:19;;;;;;;119.60;52.97;;;5.60;99.90;;;;;;5008141;28;20205;-70
2021/03/09 05:28:48;;;;;;;122.63;50.40;;;5.50;99.90;;;;;;5010928;28;20232;-70
2021/03/09 05:31:14;;;;;;;118.93;51.70;;;5.60;99.90;;;;;;5007309;28;20607;-67
2021/03/09 05:33:41;;;;;;;120.60;53.50;;;5.60;99.90;;;;;;5010189;28;20228;-66
2021/03/09 05:36:08;;;;;;;119.80;51.33;;;5.60;99.90;;;;;;5009829;28;20201;-65
2021/03/09 05:38:35;;;;;;;127.43;53.07;;;5.70;99.90;;;;;;5014476;28;20208;-67
2021/03/09 05:41:02;;;;;;;131.00;53.13;;;5.70;99.90;;;;;;5011295;28;20697;-69
2021/03/09 05:43:31;;;;;;;121.97;51.87;;;5.70;99.90;;;;;;5013148;28;20206;-64
2021/03/09 05:45:57;;;;;;;128.73;52.87;;;5.70;99.90;;;;;;5013488;28;20315;-68
2021/03/09 05:48:24;;;;;;;122.60;52.53;;;5.70;99.90;;;;;;5015060;28;20673;-66
2021/03/09 05:50:53;;;;;;;117.83;50.40;;;5.70;99.90;;;;;;5014028;28;20685;-68
2021/03/09 05:53:20;;;;;;;116.70;51.13;;;5.80;99.90;;;;;;5012401;28;20197;-66
2021/03/09 05:55:48;;;;;;;121.33;52.07;;;5.80;99.90;;;;;;5012421;28;20204;-70
2021/03/09 05:58:16;;;;;;;127.53;51.20;;;5.80;99.90;;;;;;5015201;28;20224;-68
2021/03/09 06:00:42;;;;;;;109.83;47.97;;;5.80;99.90;;;;;;5013207;28;20212;-69
2021/03/09 06:03:09;;;;;;;105.87;47.43;;;5.80;99.90;;;;;;5012865;28;20251;-65
2021/03/09 06:05:36;;;;;;;102.47;46.47;;;5.80;99.90;;;;;;5011928;28;20228;-65
2021/03/09 06:08:02;;;;;;;103.67;44.20;;;5.80;99.90;;;;;;5012561;28;20201;-67
2021/03/09 06:10:29;;;;;;;97.33;43.23;;;5.80;99.90;;;;;;5013346;28;20235;-67
2021/03/09 06:12:56;;;;;;;84.93;39.07;;;5.80;99.90;;;;;;5010837;28;20224;-64
2021/03/09 06:15:23;;;;;;;88.07;39.57;;;5.80;99.90;;;;;;5012865;28;20205;-64
2021/03/09 06:17:57;;;;;;;81.13;37.50;;;5.80;99.90;;;;;;5012786;28;20205;-67
2021/03/09 06:20:27;;;;;;;71.27;37.07;;;5.80;99.90;;;;;;5013143;28;20212;-68
2021/03/09 06:22:55;;;;;;;78.23;36.63;;;5.80;99.90;;;;;;5012574;28;20205;-61
2021/03/09 06:25:24;;;;;;;74.40;35.30;;;5.80;99.90;;;;;;5014959;28;20233;-68
2021/03/09 06:27:51;;;;;;;66.30;34.13;;;5.80;99.90;;;;;;5013512;28;20201;-68
2021/03/09 06:30:29;;;;;;;72.70;33.03;;;5.80;99.90;;;;;;5012409;28;20582;-69
2021/03/09 06:32:56;;;;;;;59.97;31.87;;;5.80;99.90;;;;;;5010784;28;20200;-65
2021/03/09 06:35:35;;;;;;;61.17;31.97;;;5.90;99.90;;;;;;5012682;28;20208;-65
2021/03/09 06:38:19;;;;;;;55.80;30.10;;;5.90;99.90;;;;;;5012562;28;20196;-68
2021/03/09 06:41:06;;;;;;;55.37;29.20;;;5.90;99.90;;;;;;5011424;28;20244;-66
2021/03/09 06:43:33;;;;;;;62.03;30.80;;;5.90;99.90;;;;;;5008582;28;20216;-65
2021/03/09 06:46:16;;;;;;;56.03;30.33;;;5.90;99.90;;;;;;5011155;28;20244;-67
2021/03/09 06:48:43;;;;;;;53.63;29.63;;;5.90;99.90;;;;;;5009065;28;20208;-69
2021/03/09 06:51:25;;;;;;;56.43;30.07;;;5.90;99.90;;;;;;5014093;28;20201;-63
2021/03/09 06:54:02;;;;;;;56.77;29.70;;;6.00;99.90;;;;;;5009556;28;20227;-66
2021/03/09 06:56:29;;;;;;;60.47;30.27;;;5.90;99.90;;;;;;5014380;28;20661;-68
2021/03/09 06:58:56;;;;;;;50.43;29.10;;;6.00;99.90;;;;;;5013909;28;20200;-63
2021/03/09 07:01:23;;;;;;;50.97;28.53;;;6.00;99.90;;;;;;5011723;28;20201;-67
2021/03/09 07:03:50;;;;;;;53.50;29.47;;;6.00;99.90;;;;;;5011565;28;20635;-62
2021/03/09 07:06:17;;;;;;;47.03;27.87;;;6.00;99.90;;;;;;5013947;28;20647;-69
2021/03/09 07:08:43;;;;;;;55.33;29.13;;;6.00;99.90;;;;;;5010787;28;20205;-67
2021/03/09 07:11:10;;;;;;;54.10;29.50;;;6.10;99.90;;;;;;5013580;28;20217;-64
2021/03/09 07:13:42;;;;;;;54.00;28.50;;;6.00;99.90;;;;;;5011885;28;20209;-67
2021/03/09 07:16:10;;;;;;;53.20;29.33;;;6.00;99.90;;;;;;5011759;28;20200;-67
2021/03/09 07:18:41;;;;;;;52.23;29.27;;;6.10;99.90;;;;;;5014023;28;20613;-68
2021/03/09 07:21:08;;;;;;;52.63;29.37;;;6.10;99.90;;;;;;5011209;28;20201;-68
2021/03/09 07:23:39;;;;;;;50.77;28.77;;;6.10;99.90;;;;;;5012456;28;20666;-70
2021/03/09 07:26:09;;;;;;;51.90;29.67;;;6.10;99.90;;;;;;5012487;28;20193;-69
2021/03/09 07:28:41;;;;;;;49.63;28.37;;;6.10;99.90;;;;;;5013248;28;20205;-64
2021/03/09 07:31:08;;;;;;;52.83;28.27;;;6.10;99.90;;;;;;5013836;28;20193;-66
2021/03/09 07:33:36;;;;;;;50.53;27.97;;;6.10;99.90;;;;;;5012815;28;20209;-67
2021/03/09 07:36:06;;;;;;;53.30;29.43;;;6.10;99.90;;;;;;5013513;28;20229;-68
2021/03/09 07:38:34;;;;;;;47.13;28.50;;;6.10;99.90;;;;;;5013564;28;20604;-68
2021/03/09 07:41:01;;;;;;;48.40;28.37;;;6.10;99.90;;;;;;5011275;28;20201;-68
2021/03/09 07:43:27;;;;;;;48.23;28.57;;;6.20;99.90;;;;;;5011292;28;20201;-63
2021/03/09 07:45:54;;;;;;;50.60;28.37;;;6.20;99.90;;;;;;5011971;28;20224;-65
2021/03/09 07:48:23;;;;;;;48.83;28.30;;;6.30;99.90;;;;;;5013084;28;20196;-67
2021/03/09 07:50:50;;;;;;;45.93;27.40;;;6.30;99.90;;;;;;5011476;28;20225;-65
2021/03/09 07:53:18;;;;;;;49.47;28.50;;;6.30;99.90;;;;;;5010831;28;20267;-69
2021/03/09 07:55:46;;;;;;;44.23;26.47;;;6.30;99.90;;;;;;5010996;28;20558;-67
2021/03/09 07:58:17;;;;;;;47.63;28.50;;;6.40;99.90;;;;;;5013203;28;20200;-68
2021/03/09 08:00:48;;;;;;;42.73;27.23;;;6.40;99.90;;;;;;5009417;28;20197;-68
2021/03/09 08:03:18;;;;;;;43.43;27.03;;;6.40;99.90;;;;;;5007171;28;20196;-67
2021/03/09 08:05:50;;;;;;;39.43;27.17;;;6.40;99.90;;;;;;5012185;28;20204;-69
2021/03/09 08:08:52;;;;;;;44.93;26.57;;;6.40;99.90;;;;;;5015038;28;20255;-66
2021/03/09 08:11:38;;;;;;;45.00;27.30;;;6.50;99.90;;;;;;5001757;28;20204;-68
2021/03/09 08:14:22;;;;;;;47.03;27.10;;;6.50;99.90;;;;;;5012946;28;20201;-70
2021/03/09 08:16:50;;;;;;;43.10;27.20;;;6.60;99.90;;;;;;5012837;28;20197;-66
2021/03/09 08:19:45;;;;;;;44.37;26.47;;;6.60;99.90;;;;;;5011683;28;20204;-68
2021/03/09 08:22:12;;;;;;;44.33;27.70;;;6.60;99.90;;;;;;4957044;28;20232;-66
2021/03/09 08:24:57;;;;;;;42.57;26.50;;;6.60;99.90;;;;;;5010636;28;20638;-66
2021/03/09 08:27:37;;;;;;;43.63;26.37;;;6.70;99.90;;;;;;5012155;28;20216;-65
2021/03/09 08:30:27;;;;;;;43.87;27.37;;;6.70;99.90;;;;;;5012648;28;20221;-62
2021/03/09 08:32:54;;;;;;;42.33;26.37;;;6.80;99.90;;;;;;5004838;28;20196;-67
2021/03/09 08:35:35;;;;;;;38.67;26.57;;;6.80;99.90;;;;;;5012505;28;20196;-68
2021/03/09 08:38:20;;;;;;;44.80;27.00;;;6.80;99.90;;;;;;5010450;28;20239;-62
2021/03/09 08:41:06;;;;;;;41.90;26.17;;;6.80;99.90;;;;;;5009579;28;20209;-67
2021/03/09 08:43:34;;;;;;;42.27;25.97;;;6.80;99.90;;;;;;5012490;28;20200;-69
2021/03/09 08:46:03;;;;;;;35.80;24.80;;;6.90;99.90;;;;;;5008164;28;20236;-65
2021/03/09 08:48:54;;;;;;;40.00;26.03;;;6.90;99.90;;;;;;5008562;28;20200;-68
2021/03/09 08:51:51;;;;;;;38.20;24.40;;;6.90;99.90;;;;;;5009838;28;20204;-70
2021/03/09 08:54:36;;;;;;;42.13;26.23;;;7.00;99.90;;;;;;5008289;28;20247;-68
2021/03/09 08:57:08;;;;;;;39.97;26.17;;;7.00;99.90;;;;;;5010904;28;20207;-68
2021/03/09 08:59:37;;;;;;;38.13;26.40;;;7.00;99.90;;;;;;5006856;28;20572;-68
2021/03/09 09:02:15;;;;;;;42.50;26.03;;;7.10;99.90;;;;;;5003880;28;20212;-64
2021/03/09 09:04:44;;;;;;;37.80;25.40;;;7.10;99.90;;;;;;5006001;28;20247;-67
2021/03/09 09:07:21;;;;;;;43.90;26.77;;;7.20;99.90;;;;;;5005945;28;20205;-68
2021/03/09 09:09:48;;;;;;;40.50;25.90;;;7.20;99.90;;;;;;5005645;28;20694;-66
2021/03/09 09:12:32;;;;;;;42.53;26.40;;;7.20;99.90;;;;;;4994363;28;20713;-64
2021/03/09 09:15:18;;;;;;;38.70;26.50;;;7.40;99.90;;;;;;4998736;28;20200;-67
2021/03/09 09:17:47;;;;;;;33.30;24.07;;;7.50;99.90;;;;;;4998261;28;20189;-67
2021/03/09 09:20:17;;;;;;;45.17;26.93;;;7.60;99.90;;;;;;4997708;28;20263;-66
2021/03/09 09:22:44;;;;;;;38.60;25.77;;;7.60;99.90;;;;;;4997930;28;20201;-64
2021/03/09 09:25:12;;;;;;;37.37;25.23;;;7.50;99.90;;;;;;4994687;28;20205;-66
2021/03/09 09:27:45;;;;;;;35.80;25.23;;;7.50;99.90;;;;;;4998717;28;20201;-69
2021/03/09 09:30:15;;;;;;;39.07;26.93;;;7.50;99.90;;;;;;5005213;28;20221;-68
2021/03/09 09:32:44;;;;;;;35.07;23.83;;;7.50;99.90;;;;;;4996893;28;20206;-68
2021/03/09 09:35:11;;;;;;;33.30;24.30;;;7.40;99.90;;;;;;4996813;28;20205;-70
2021/03/09 09:37:45;;;;;;;35.97;25.10;;;7.30;99.90;;;;;;4997988;28;20216;-63
2021/03/09 09:40:13;;;;;;;34.90;24.30;;;7.20;99.90;;;;;;5010455;28;20205;-68
2021/03/09 09:42:39;;;;;;;35.00;24.97;;;7.20;99.90;;;;;;5009181;28;20249;-64
2021/03/09 09:45:07;;;;;;;32.87;24.60;;;7.20;99.90;;;;;;4995681;28;20233;-69
2021/03/09 09:47:35;;;;;;;33.43;23.87;;;7.20;99.90;;;;;;5002879;28;20647;-67
2021/03/09 09:50:04;;;;;;;35.07;25.73;;;7.30;99.90;;;;;;5004223;28;20228;-68
2021/03/09 09:52:31;;;;;;;35.17;24.97;;;7.40;99.90;;;;;;5003102;28;20236;-65
2021/03/09 09:54:57;;;;;;;35.13;23.87;;;7.60;99.90;;;;;;5003474;28;20200;-67
2021/03/09 09:57:24;;;;;;;32.97;24.20;;;7.60;99.90;;;;;;5008091;28;20201;-66
2021/03/09 09:59:51;;;;;;;34.80;24.43;;;7.60;99.90;;;;;;4998660;28;20204;-70
2021/03/09 10:02:23;;;;;;;38.20;24.63;;;7.60;99.90;;;;;;5002318;28;20201;-69
2021/03/09 10:04:51;;;;;;;35.07;24.77;;;7.70;99.90;;;;;;5007501;28;20703;-68
2021/03/09 10:07:20;;;;;;;37.00;25.70;;;7.70;99.90;;;;;;4997896;28;20261;-66
2021/03/09 10:10:08;;;;;;;37.00;25.20;;;7.70;99.90;;;;;;5002359;28;20222;-69
2021/03/09 10:12:37;;;;;;;39.03;25.87;;;7.70;99.90;;;;;;4988022;28;20197;-68
2021/03/09 10:15:06;;;;;;;46.37;27.90;;;7.70;99.90;;;;;;4997089;28;20210;-64
2021/03/09 10:17:33;;;;;;;46.40;27.43;;;7.80;99.90;;;;;;4997439;28;20259;-64
2021/03/09 10:20:00;;;;;;;48.43;29.17;;;7.70;99.90;;;;;;5003473;28;20204;-67
2021/03/09 10:22:27;;;;;;;47.07;28.57;;;7.70;99.90;;;;;;5005035;28;20201;-65
2021/03/09 10:25:08;;;;;;;47.73;27.57;;;7.70;99.90;;;;;;4991950;28;20193;-65
2021/03/09 10:27:34;;;;;;;46.00;28.53;;;7.80;99.90;;;;;;4997859;28;20205;-64
2021/03/09 10:30:02;;;;;;;45.33;28.37;;;7.90;99.90;;;;;;5005383;28;20225;-65
2021/03/09 10:32:28;;;;;;;47.77;28.70;;;7.90;99.90;;;;;;4994278;28;20205;-65
2021/03/09 10:34:56;;;;;;;48.23;29.40;;;8.10;99.90;;;;;;4994125;28;20213;-65
2021/03/09 10:37:36;;;;;;;47.47;28.70;;;8.10;99.90;;;;;;4997291;28;20240;-66
2021/03/09 10:40:04;;;;;;;43.97;28.50;;;8.10;99.90;;;;;;4997212;28;20198;-68
2021/03/09 10:42:33;;;;;;;46.43;28.27;;;8.20;99.90;;;;;;5005796;28;20566;-68
2021/03/09 10:45:18;;;;;;;46.03;28.47;;;8.20;99.90;;;;;;5007389;28;20712;-66
2021/03/09 10:47:48;;;;;;;41.60;27.23;;;8.30;99.90;;;;;;4999333;28;20193;-67
2021/03/09 10:50:15;;;;;;;35.80;24.60;;;8.30;99.90;;;;;;4998398;28;20217;-69
2021/03/09 10:52:43;;;;;;;33.60;23.27;;;8.40;99.90;;;;;;5004400;28;20572;-68
2021/03/09 10:55:10;;;;;;;33.07;21.20;;;8.50;99.90;;;;;;4996152;28;20208;-69
2021/03/09 10:57:37;;;;;;;33.47;21.60;;;8.50;99.90;;;;;;4995402;28;20201;-68
2021/03/09 11:00:05;;;;;;;30.80;20.90;;;8.50;99.90;;;;;;4996742;28;20198;-68
2021/03/09 11:02:31;;;;;;;30.67;21.30;;;8.50;99.90;;;;;;4994067;28;20198;-66
2021/03/09 11:04:58;;;;;;;31.80;22.60;;;8.50;99.90;;;;;;4995945;28;20729;-68
2021/03/09 11:07:25;;;;;;;37.43;24.67;;;8.60;99.90;;;;;;5003326;28;20284;-69
2021/03/09 11:09:52;;;;;;;36.33;24.03;;;8.90;99.90;;;;;;4997086;28;20227;-62
2021/03/09 11:12:18;;;;;;;37.30;24.47;;;8.90;99.90;;;;;;4994627;28;20197;-66
2021/03/09 11:14:45;;;;;;;36.63;25.43;;;9.00;99.90;;;;;;4995817;28;20223;-64
2021/03/09 11:17:12;;;;;;;39.13;24.97;;;9.10;99.90;;;;;;4994369;28;20197;-68
2021/03/09 11:19:38;;;;;;;37.70;23.40;;;9.10;99.90;;;;;;4993566;28;20202;-66
2021/03/09 11:22:05;;;;;;;33.50;22.77;;;9.10;99.90;;;;;;4997847;28;20562;-69
2021/03/09 11:24:31;;;;;;;31.83;22.50;;;9.00;99.90;;;;;;5002969;28;20202;-69
2021/03/09 11:27:00;;;;;;;36.00;22.20;;;9.00;99.90;;;;;;5001255;28;20224;-66
2021/03/09 11:29:27;;;;;;;30.67;22.17;;;9.00;99.90;;;;;;5011129;28;20729;-67
2021/03/09 11:31:54;;;;;;;31.40;21.50;;;8.90;99.90;;;;;;5010824;28;20597;-66
2021/03/09 11:34:20;;;;;;;35.60;22.17;;;8.90;99.90;;;;;;4997958;28;20213;-67
2021/03/09 11:36:47;;;;;;;27.77;19.30;;;8.80;99.90;;;;;;5010001;28;20565;-68
2021/03/09 11:39:13;;;;;;;30.27;20.17;;;8.80;99.90;;;;;;4995519;28;20710;-75
2021/03/09 11:41:40;;;;;;;32.33;21.17;;;8.80;99.90;;;;;;5005514;28;20243;-67
2021/03/09 11:44:13;;;;;;;30.27;20.63;;;8.80;99.90;;;;;;4995918;28;20252;-68
2021/03/09 11:46:48;;;;;;;32.13;20.83;;;8.80;99.90;;;;;;5007363;28;22029;-64
2021/03/09 11:49:24;;;;;;;32.57;22.23;;;8.80;99.90;;;;;;5007348;28;20342;-67
2021/03/09 11:51:51;;;;;;;33.53;23.60;;;8.70;99.90;;;;;;5008074;28;20239;-70
2021/03/09 11:54:17;;;;;;;39.00;23.03;;;8.60;99.90;;;;;;5004751;28;20209;-66
2021/03/09 11:56:44;;;;;;;37.47;23.37;;;8.70;99.90;;;;;;5009180;28;20212;-63
2021/03/09 11:59:11;;;;;;;41.60;23.53;;;8.90;99.90;;;;;;5003523;28;20572;-64
2021/03/09 12:01:38;;;;;;;33.30;23.60;;;9.00;99.90;;;;;;5006611;28;20201;-65
2021/03/09 12:04:05;;;;;;;34.27;22.30;;;9.00;99.90;;;;;;5000117;28;20268;-64
2021/03/09 12:06:31;;;;;;;39.33;24.53;;;8.90;99.90;;;;;;5009240;28;20209;-61
2021/03/09 12:08:58;;;;;;;34.03;23.20;;;8.90;99.90;;;;;;5008832;28;20208;-63
2021/03/09 12:11:24;;;;;;;41.63;24.73;;;9.00;99.90;;;;;;5007010;28;20707;-65
2021/03/09 12:13:51;;;;;;;30.17;23.23;;;9.00;99.90;;;;;;5006552;28;20216;-63
2021/03/09 12:16:18;;;;;;;32.97;22.57;;;9.00;99.90;;;;;;5004210;28;20217;-64
2021/03/09 12:18:45;;;;;;;32.77;23.37;;;9.10;99.90;;;;;;5003646;28;20228;-62
2021/03/09 12:21:11;;;;;;;32.13;22.87;;;9.10;99.90;;;;;;5008888;28;20539;-65
2021/03/09 12:23:38;;;;;;;34.90;22.60;;;9.10;99.90;;;;;;4998625;28;20200;-67
2021/03/09 12:26:04;;;;;;;30.70;21.73;;;9.10;99.90;;;;;;4992535;28;20194;-63
2021/03/09 12:28:31;;;;;;;28.83;21.00;;;9.20;99.90;;;;;;4997282;28;20206;-67
2021/03/09 12:30:57;;;;;;;29.57;19.93;;;9.00;99.90;;;;;;4993355;28;20233;-63
2021/03/09 12:33:25;;;;;;;31.30;21.00;;;8.90;99.90;;;;;;4995130;28;20205;-65
2021/03/09 12:35:51;;;;;;;37.70;22.63;;;8.90;99.90;;;;;;4996461;28;20217;-67
2021/03/09 12:38:18;;;;;;;34.13;22.27;;;8.90;99.90;;;;;;5014063;28;20219;-68
2021/03/09 12:40:44;;;;;;;31.73;22.97;;;8.80;99.90;;;;;;5001606;28;20204;-65
2021/03/09 12:43:11;;;;;;;33.23;22.80;;;8.80;99.90;;;;;;5011820;28;20208;-63
2021/03/09 12:45:37;;;;;;;34.57;23.10;;;8.70;99.90;;;;;;5008784;28;20224;-63
2021/03/09 12:48:04;;;;;;;35.37;23.17;;;8.60;99.90;;;;;;5008632;28;20208;-67